Time;durP1;ratioP1;P1;durP2;ratioP2;P2;SDS_P1;SDS_P2;PMS_P1;PMS_P2;Temp;Humidity;BMP_temperature;BMP_pressure;BME280_temperature;BME280_humidity;BME280_pressure;Samples;Min_cycle;Max_cycle;Signal;HPM_P1;HPM_P2
2023/12/22 00:00:08;;;;;;;3.08;1.77;;;;;;;8.67;73.95;99204.56;2521225;28;20414;-74
2023/12/22 00:01:22;;;;;;;5.43;2.70;;;;;;;8.68;73.44;99214.06;2522157;28;20461;-74
2023/12/22 00:02:36;;;;;;;7.00;2.78;;;;;;;8.68;73.57;99208.84;2522529;28;20042;-74
2023/12/22 00:03:50;;;;;;;5.32;2.17;;;;;;;8.69;73.02;99201.91;2521789;28;20045;-75
2023/12/22 00:05:06;;;;;;;8.02;2.20;;;;;;;8.70;73.19;99208.81;2522606;28;20056;-75
2023/12/22 00:06:20;;;;;;;5.53;1.85;;;;;;;8.71;72.95;99218.31;2522437;28;20069;-75
2023/12/22 00:07:34;;;;;;;5.03;1.42;;;;;;;8.71;72.74;99219.19;2522480;28;20081;-75
2023/12/22 00:08:48;;;;;;;8.32;1.65;;;;;;;8.71;72.58;99211.38;2522334;28;20050;-75
2023/12/22 00:10:02;;;;;;;6.95;1.25;;;;;;;8.71;72.17;99213.97;2522156;28;20146;-74
2023/12/22 00:11:16;;;;;;;6.28;1.45;;;;;;;8.71;71.95;99236.53;2522683;28;20053;-75
2023/12/22 00:12:30;;;;;;;2.88;1.35;;;;;;;8.70;71.99;99235.69;2521926;28;20046;-75
2023/12/22 00:13:43;;;;;;;4.38;1.50;;;;;;;8.71;71.92;99228.72;2522298;28;20050;-75
2023/12/22 00:14:58;;;;;;;5.00;1.95;;;;;;;8.70;71.74;99232.22;2522400;28;20429;-74
2023/12/22 00:16:12;;;;;;;8.48;1.55;;;;;;;8.69;71.50;99240.91;2522012;28;20042;-75
2023/12/22 00:17:26;;;;;;;4.88;1.27;;;;;;;8.69;71.61;99239.16;2522556;28;20071;-75
2023/12/22 00:18:39;;;;;;;6.60;2.05;;;;;;;8.70;71.61;99246.09;2521572;28;20065;-75
2023/12/22 00:19:56;;;;;;;3.30;1.58;;;;;;;8.69;71.05;99244.34;2521892;28;21162;-75
2023/12/22 00:21:11;;;;;;;3.28;1.65;;;;;;;8.68;70.79;99236.59;2522282;28;20054;-75
2023/12/22 00:22:25;;;;;;;3.95;1.02;;;;;;;8.68;70.72;99241.81;2522248;28;20419;-75
2023/12/22 00:23:39;;;;;;;3.40;1.20;;;;;;;8.68;70.66;99247.00;2521875;28;20052;-74
2023/12/22 00:24:53;;;;;;;5.20;1.80;;;;;;;8.69;70.93;99254.75;2522094;28;20654;-74
2023/12/22 00:26:07;;;;;;;5.40;1.38;;;;;;;8.71;70.75;99266.00;2522230;28;20060;-76
2023/12/22 00:27:21;;;;;;;7.20;4.15;;;;;;;8.71;70.58;99271.19;2522464;28;20045;-77
2023/12/22 00:28:34;;;;;;;11.05;2.47;;;;;;;8.71;70.39;99284.19;2521977;28;20042;-76
2023/12/22 00:29:49;;;;;;;7.07;1.90;;;;;;;8.71;70.60;99276.41;2522587;28;20042;-75
2023/12/22 00:31:03;;;;;;;4.25;1.52;;;;;;;8.72;70.18;99274.66;2520088;28;20141;-75
2023/12/22 00:32:17;;;;;;;3.10;1.20;;;;;;;8.73;70.10;99274.63;2522023;28;20045;-76
2023/12/22 00:33:30;;;;;;;4.32;1.08;;;;;;;8.73;69.78;99276.38;2522348;28;20042;-75
2023/12/22 00:34:45;;;;;;;3.30;1.35;;;;;;;8.73;69.97;99272.03;2522294;28;20521;-76
2023/12/22 00:35:58;;;;;;;5.25;1.48;;;;;;;8.71;69.99;99258.19;2523325;28;20057;-75
2023/12/22 00:37:14;;;;;;;9.65;1.75;;;;;;;8.73;70.03;99264.22;2521703;28;20120;-74
2023/12/22 00:38:27;;;;;;;2.90;1.42;;;;;;;8.73;69.46;99253.81;2522147;28;20056;-74
2023/12/22 00:39:42;;;;;;;8.57;1.58;;;;;;;8.76;69.77;99262.44;2521736;28;20041;-74
2023/12/22 00:40:55;;;;;;;3.83;1.67;;;;;;;8.76;69.77;99262.44;2522070;28;20049;-73
2023/12/22 00:42:10;;;;;;;5.57;1.50;;;;;;;8.74;69.60;99255.50;2522234;28;20434;-74
2023/12/22 00:43:23;;;;;;;6.38;1.65;;;;;;;8.73;69.77;99248.59;2522003;28;20053;-74
2023/12/22 00:44:39;;;;;;;2.78;1.42;;;;;;;8.72;69.84;99249.50;2521971;28;20046;-74
2023/12/22 00:45:53;;;;;;;3.90;1.20;;;;;;;8.69;69.74;99244.34;2522228;28;20411;-74
2023/12/22 00:47:07;;;;;;;2.20;1.27;;;;;;;8.68;69.31;99240.06;2522002;28;20050;-75
2023/12/22 00:48:20;;;;;;;4.22;2.17;;;;;;;8.67;69.35;99245.28;2521804;28;20065;-75
2023/12/22 00:49:35;;;;;;;4.72;1.60;;;;;;;8.63;68.94;99223.72;2522052;28;20045;-75
2023/12/22 00:50:48;;;;;;;5.45;1.35;;;;;;;8.62;68.32;99215.94;2522260;28;20049;-74
2023/12/22 00:52:03;;;;;;;4.55;2.60;;;;;;;8.58;68.67;99228.16;2521849;28;20050;-74
2023/12/22 00:53:18;;;;;;;4.22;1.67;;;;;;;8.55;68.77;99230.84;2522012;28;20045;-75
2023/12/22 00:54:32;;;;;;;4.65;1.60;;;;;;;8.52;69.49;99228.31;2522357;28;20178;-74
2023/12/22 00:55:45;;;;;;;4.35;1.30;;;;;;;8.47;69.19;99231.00;2521286;28;20046;-74
2023/12/22 00:57:00;;;;;;;4.65;1.75;;;;;;;8.43;69.19;99231.97;2521849;28;20049;-74
2023/12/22 00:58:13;;;;;;;3.00;1.40;;;;;;;8.40;69.51;99220.78;2522001;28;20062;-74
2023/12/22 00:59:28;;;;;;;6.25;1.85;;;;;;;8.38;69.38;99232.94;2522242;28;20050;-75
2023/12/22 01:00:41;;;;;;;4.25;1.27;;;;;;;8.34;69.19;99231.28;2521700;28;20525;-74
2023/12/22 01:01:56;;;;;;;7.03;1.40;;;;;;;8.33;69.58;99232.16;2520593;28;20056;-75
2023/12/22 01:03:11;;;;;;;5.65;1.38;;;;;;;8.29;69.54;99228.78;2521310;28;20049;-74
2023/12/22 01:04:26;;;;;;;7.80;3.90;;;;;;;8.24;69.31;99231.50;2521491;28;20046;-74
2023/12/22 01:05:39;;;;;;;2.30;0.80;;;;;;;8.24;69.00;99239.28;2522258;28;20057;-74
2023/12/22 01:06:54;;;;;;;3.45;1.25;;;;;;;8.24;68.93;99235.84;2523095;28;20048;-74
2023/12/22 01:08:07;;;;;;;2.08;0.90;;;;;;;8.23;68.07;99237.56;2523089;28;20045;-74
2023/12/22 01:09:23;;;;;;;5.15;0.95;;;;;;;8.24;68.11;99246.25;2524237;28;20056;-74
2023/12/22 01:10:36;;;;;;;6.63;1.33;;;;;;;8.23;67.63;99254.91;2523612;28;20078;-74
2023/12/22 01:11:51;;;;;;;3.25;1.40;;;;;;;8.22;67.47;99248.84;2523208;28;20045;-75
2023/12/22 01:13:04;;;;;;;2.78;0.70;;;;;;;8.20;67.01;99250.63;2522890;28;20045;-74
2023/12/22 01:14:19;;;;;;;7.03;0.90;;;;;;;8.23;65.08;99236.72;2516139;28;20437;-75
2023/12/22 01:15:32;;;;;;;5.20;0.85;;;;;;;8.26;65.01;99260.91;2524179;28;20046;-75
2023/12/22 01:16:46;;;;;;;3.53;1.48;;;;;;;8.26;65.24;99271.31;2523611;28;20042;-74
2023/12/22 01:18:00;;;;;;;10.02;1.17;;;;;;;8.26;64.97;99281.69;2524313;28;20046;-75
2023/12/22 01:19:14;;;;;;;1.73;0.70;;;;;;;8.25;64.79;99282.56;2523844;28;20068;-75
2023/12/22 01:20:28;;;;;;;1.73;0.70;;;;;;;8.23;64.85;99291.28;2523481;28;20045;-75
2023/12/22 01:21:42;;;;;;;4.28;0.70;;;;;;;8.20;65.35;99288.75;2524264;28;20050;-75
2023/12/22 01:22:56;;;;;;;7.07;0.95;;;;;;;8.18;65.03;99287.94;2523799;28;20056;-75
2023/12/22 01:24:10;;;;;;;2.83;0.70;;;;;;;8.14;64.89;99288.91;2523521;28;20115;-74
2023/12/22 01:25:25;;;;;;;2.22;0.63;;;;;;;8.12;65.30;99301.91;2523749;28;20050;-74
2023/12/22 01:26:39;;;;;;;6.28;1.10;;;;;;;8.06;65.64;99307.25;2524143;28;20129;-75
2023/12/22 01:27:53;;;;;;;3.30;0.80;;;;;;;8.00;65.94;99302.16;2523602;28;20049;-74
2023/12/22 01:29:07;;;;;;;2.55;2.35;;;;;;;7.95;66.11;99315.25;2523805;28;20048;-75
2023/12/22 01:30:20;;;;;;;2.55;0.63;;;;;;;7.90;66.81;99308.41;2523482;28;20050;-75
2023/12/22 01:31:35;;;;;;;3.40;0.70;;;;;;;7.84;67.22;99310.22;2523433;28;20052;-75
2023/12/22 01:32:48;;;;;;;2.17;0.65;;;;;;;7.79;67.39;99317.25;2523669;28;20050;-75
2023/12/22 01:34:03;;;;;;;3.05;0.80;;;;;;;7.74;68.02;99313.03;2523949;28;20491;-74
2023/12/22 01:35:16;;;;;;;1.67;0.88;;;;;;;7.71;68.65;99310.50;2523799;28;20053;-75
2023/12/22 01:36:30;;;;;;;3.30;0.68;;;;;;;7.68;68.54;99319.22;2523534;28;20048;-75
2023/12/22 01:37:44;;;;;;;2.40;0.63;;;;;;;7.67;68.26;99333.09;2523822;28;20415;-74
2023/12/22 01:38:58;;;;;;;3.20;0.75;;;;;;;7.65;68.58;99324.47;2523731;28;20057;-74
2023/12/22 01:40:12;;;;;;;5.53;1.98;;;;;;;7.67;68.60;99333.09;2523096;28;20038;-75
2023/12/22 01:41:28;;;;;;;1.65;1.00;;;;;;;7.66;68.56;99336.56;2523869;28;21390;-74
2023/12/22 01:42:41;;;;;;;2.05;0.80;;;;;;;7.66;68.52;99320.97;2523732;28;20426;-74
2023/12/22 01:43:55;;;;;;;1.90;1.60;;;;;;;7.66;68.75;99320.97;2523287;28;20041;-75
2023/12/22 01:45:10;;;;;;;5.53;2.20;;;;;;;7.67;69.17;99321.81;2523757;28;20050;-75
2023/12/22 01:46:25;;;;;;;2.97;1.00;;;;;;;7.68;69.47;99308.81;2523287;28;20054;-75
2023/12/22 01:47:38;;;;;;;1.52;0.90;;;;;;;7.69;69.89;99326.09;2523301;28;20514;-76
2023/12/22 01:48:53;;;;;;;3.78;1.17;;;;;;;7.69;69.56;99339.09;2523893;28;20046;-75
2023/12/22 01:50:10;;;;;;;2.58;0.77;;;;;;;7.69;69.55;99326.09;2523548;28;20487;-74
2023/12/22 01:51:24;;;;;;;2.65;0.93;;;;;;;7.69;69.76;99348.63;2516135;28;20093;-74
2023/12/22 01:52:38;;;;;;;1.35;0.88;;;;;;;7.67;69.88;99343.47;2523508;28;20442;-74
2023/12/22 01:53:53;;;;;;;1.60;1.13;;;;;;;7.67;69.75;99348.66;2523533;28;20045;-75
2023/12/22 01:55:07;;;;;;;2.42;0.90;;;;;;;7.67;69.42;99334.81;2523707;28;20092;-74
2023/12/22 01:56:22;;;;;;;5.22;0.98;;;;;;;7.65;69.94;99335.69;2515220;28;20507;-75
2023/12/22 01:57:36;;;;;;;2.22;0.65;;;;;;;7.66;70.27;99336.56;2523632;28;20045;-75
2023/12/22 01:58:51;;;;;;;1.33;0.70;;;;;;;7.66;70.63;99331.34;2523617;28;20070;-74
2023/12/22 02:00:07;;;;;;;3.85;1.02;;;;;;;7.64;70.68;99339.19;2523110;28;20049;-75
2023/12/22 02:01:23;;;;;;;3.45;1.15;;;;;;;7.64;71.14;99338.31;2523709;28;20057;-75
2023/12/22 02:02:38;;;;;;;4.43;1.02;;;;;;;7.63;70.85;99344.41;2523757;28;20046;-75
2023/12/22 02:03:53;;;;;;;3.33;1.05;;;;;;;7.65;70.56;99345.22;2522775;28;20384;-74
2023/12/22 02:05:09;;;;;;;3.20;2.10;;;;;;;7.67;70.70;99345.19;2523139;28;20065;-75
2023/12/22 02:06:23;;;;;;;2.40;1.00;;;;;;;7.69;70.92;99335.63;2515768;28;20053;-75
2023/12/22 02:07:37;;;;;;;4.78;1.13;;;;;;;7.72;70.60;99348.56;2523257;28;20483;-76
2023/12/22 02:08:51;;;;;;;5.20;2.92;;;;;;;7.74;71.10;99329.47;2523362;28;20042;-74
2023/12/22 02:10:06;;;;;;;2.72;1.00;;;;;;;7.76;71.21;99332.06;2523670;28;20049;-74
2023/12/22 02:11:20;;;;;;;5.47;2.85;;;;;;;7.77;71.53;99324.25;2523264;28;20104;-76
2023/12/22 02:12:34;;;;;;;2.88;1.30;;;;;;;7.77;70.86;99316.47;2523073;28;20045;-76
2023/12/22 02:13:50;;;;;;;5.40;1.17;;;;;;;7.78;71.12;99320.75;2523438;28;20045;-75
2023/12/22 02:15:05;;;;;;;6.60;1.60;;;;;;;7.79;71.13;99334.59;2523498;28;20053;-76
2023/12/22 02:16:22;;;;;;;3.58;1.17;;;;;;;7.77;71.24;99328.56;2523027;28;20057;-75
2023/12/22 02:17:40;;;;;;;4.70;1.67;;;;;;;7.78;71.21;99330.28;2522624;28;20050;-75
2023/12/22 02:18:56;;;;;;;7.13;1.00;;;;;;;7.79;71.36;99329.41;2523057;28;20454;-75
2023/12/22 02:20:10;;;;;;;2.35;0.93;;;;;;;7.80;71.05;99320.75;2522738;28;20639;-75
2023/12/22 02:21:24;;;;;;;4.90;3.30;;;;;;;7.81;71.10;99325.88;2522845;28;20060;-75
2023/12/22 02:22:39;;;;;;;5.15;1.25;;;;;;;7.83;71.49;99328.47;2523271;28;20049;-75
2023/12/22 02:23:53;;;;;;;7.90;1.25;;;;;;;7.82;71.21;99318.94;2522954;28;20041;-74
2023/12/22 02:25:07;;;;;;;4.75;1.17;;;;;;;7.84;71.93;99317.19;2523413;28;20565;-75
2023/12/22 02:26:26;;;;;;;3.15;1.17;;;;;;;7.85;71.41;99311.13;2523423;28;20085;-75
2023/12/22 02:27:45;;;;;;;2.25;1.42;;;;;;;7.84;71.08;99318.03;2522997;28;20099;-75
2023/12/22 02:29:00;;;;;;;4.90;1.52;;;;;;;7.84;71.76;99317.19;2523322;28;20049;-75
2023/12/22 02:30:16;;;;;;;6.18;1.50;;;;;;;7.83;71.46;99315.47;2523332;28;20042;-75
2023/12/22 02:31:43;;;;;;;1.25;0.80;;;;;;;7.82;71.56;99326.72;2523287;28;20052;-75
2023/12/22 02:32:59;;;;;;;4.35;1.33;;;;;;;7.82;71.64;99325.03;2523168;28;20491;-75
2023/12/22 02:34:16;;;;;;;3.55;1.85;;;;;;;7.82;71.47;99326.72;2523059;28;20049;-75
2023/12/22 02:35:32;;;;;;;3.53;1.40;;;;;;;7.82;71.40;99318.94;2523338;28;20049;-76
2023/12/22 02:36:47;;;;;;;5.55;1.27;;;;;;;7.83;71.28;99316.31;2522945;28;20046;-75
2023/12/22 02:38:03;;;;;;;6.20;1.50;;;;;;;7.85;71.33;99324.94;2523395;28;20053;-75
2023/12/22 02:39:18;;;;;;;7.93;1.42;;;;;;;7.87;71.44;99314.50;2522902;28;20042;-74
2023/12/22 02:40:32;;;;;;;3.03;1.30;;;;;;;7.89;71.71;99324.88;2522365;28;20038;-75
2023/12/22 02:41:46;;;;;;;10.43;1.42;;;;;;;7.89;71.36;99314.50;2523386;28;20046;-76
2023/12/22 02:43:01;;;;;;;5.13;1.83;;;;;;;7.89;71.39;99317.09;2523255;28;20129;-76
2023/12/22 02:44:15;;;;;;;3.28;1.60;;;;;;;7.89;71.69;99314.50;2522772;28;20041;-75
2023/12/22 02:45:30;;;;;;;5.80;1.55;;;;;;;7.90;71.15;99303.22;2523458;28;20060;-75
2023/12/22 02:46:44;;;;;;;4.07;1.73;;;;;;;7.89;71.35;99310.16;2523329;28;20494;-75
2023/12/22 02:47:58;;;;;;;5.50;2.15;;;;;;;7.89;71.04;99309.31;2522958;28;20053;-75
2023/12/22 02:49:13;;;;;;;5.22;1.73;;;;;;;7.89;71.10;99314.50;2522920;28;20407;-75
2023/12/22 02:50:26;;;;;;;3.90;1.30;;;;;;;7.88;70.89;99297.22;2522831;28;20049;-74
2023/12/22 02:51:41;;;;;;;5.38;1.77;;;;;;;7.88;70.43;99305.00;2522662;28;20123;-75
2023/12/22 02:52:54;;;;;;;3.53;1.25;;;;;;;7.89;70.83;99301.50;2522906;28;20423;-75
2023/12/22 02:54:10;;;;;;;3.50;1.33;;;;;;;7.89;70.64;99309.31;2523121;28;20045;-75
2023/12/22 02:55:23;;;;;;;6.30;1.33;;;;;;;7.88;70.33;99305.84;2523253;28;20053;-75
2023/12/22 02:56:38;;;;;;;5.00;1.50;;;;;;;7.90;69.46;99303.22;2522835;28;20041;-74
2023/12/22 02:57:51;;;;;;;2.78;1.30;;;;;;;7.93;69.85;99316.16;2523295;28;20052;-75
2023/12/22 02:59:05;;;;;;;4.28;1.48;;;;;;;7.93;68.89;99322.22;2522655;28;20046;-74
2023/12/22 03:00:19;;;;;;;4.68;1.05;;;;;;;7.94;69.12;99320.47;2522444;28;20052;-75
2023/12/22 03:01:33;;;;;;;4.07;1.10;;;;;;;7.94;68.81;99320.47;2523239;28;20518;-75
2023/12/22 03:02:47;;;;;;;5.03;3.00;;;;;;;7.96;69.29;99331.69;2522871;28;20053;-74
2023/12/22 03:04:01;;;;;;;3.08;0.95;;;;;;;7.95;68.96;99337.75;2522821;28;20046;-76
2023/12/22 03:05:14;;;;;;;6.22;1.42;;;;;;;7.96;68.25;99331.69;2522877;28;20423;-75
2023/12/22 03:06:29;;;;;;;6.30;1.92;;;;;;;8.00;67.92;99335.91;2523046;28;20052;-75
2023/12/22 03:07:42;;;;;;;3.15;1.55;;;;;;;8.03;67.64;99341.09;2522728;28;20106;-75
2023/12/22 03:08:57;;;;;;;3.08;1.27;;;;;;;8.04;67.98;99347.97;2522903;28;20164;-75
2023/12/22 03:10:12;;;;;;;5.90;1.90;;;;;;;8.05;67.94;99341.88;2522911;28;20053;-74
2023/12/22 03:11:26;;;;;;;2.92;1.40;;;;;;;8.03;67.98;99333.28;2514759;28;20143;-74
2023/12/22 03:12:39;;;;;;;1.75;0.88;;;;;;;8.03;67.82;99347.13;2522448;28;20049;-75
2023/12/22 03:13:54;;;;;;;3.15;1.30;;;;;;;8.04;67.86;99335.00;2522776;28;20056;-75
2023/12/22 03:15:09;;;;;;;5.45;1.50;;;;;;;8.04;68.53;99340.19;2522783;28;20399;-74
2023/12/22 03:16:23;;;;;;;1.80;1.00;;;;;;;8.04;67.97;99342.78;2522326;28;20125;-75
2023/12/22 03:17:36;;;;;;;4.13;1.35;;;;;;;8.03;68.48;99351.47;2522366;28;20558;-75
2023/12/22 03:18:51;;;;;;;1.50;1.02;;;;;;;8.02;68.62;99339.34;2522955;28;20053;-75
2023/12/22 03:20:05;;;;;;;3.17;1.98;;;;;;;8.00;68.89;99326.41;2522203;28;20053;-75
2023/12/22 03:21:20;;;;;;;5.45;0.90;;;;;;;7.99;68.27;99322.09;2522858;28;20054;-75
2023/12/22 03:22:33;;;;;;;4.70;1.30;;;;;;;7.99;68.93;99327.28;2523001;28;20491;-75
2023/12/22 03:23:47;;;;;;;3.28;1.00;;;;;;;7.99;69.21;99335.06;2522318;28;20121;-75
2023/12/22 03:25:01;;;;;;;3.30;1.45;;;;;;;8.00;68.93;99338.53;2522884;28;20053;-75
2023/12/22 03:26:17;;;;;;;2.40;0.95;;;;;;;8.00;68.84;99320.34;2522533;28;20072;-75
2023/12/22 03:27:30;;;;;;;3.53;1.48;;;;;;;8.00;68.87;99323.81;2522654;28;20442;-75
2023/12/22 03:28:44;;;;;;;3.10;1.20;;;;;;;7.99;68.85;99324.69;2522267;28;20050;-74
2023/12/22 03:29:58;;;;;;;3.05;1.02;;;;;;;7.98;68.68;99332.53;2522560;28;20052;-75
2023/12/22 03:31:12;;;;;;;3.08;0.88;;;;;;;7.96;69.49;99318.69;2522778;28;20071;-74
2023/12/22 03:32:26;;;;;;;4.28;0.88;;;;;;;7.95;69.29;99337.75;2522317;28;20074;-75
2023/12/22 03:33:40;;;;;;;3.22;1.58;;;;;;;7.94;69.18;99325.66;2522272;28;20054;-75
2023/12/22 03:34:54;;;;;;;6.15;2.75;;;;;;;7.94;69.94;99333.44;2522449;28;20057;-74
2023/12/22 03:36:08;;;;;;;9.35;1.38;;;;;;;7.92;69.92;99330.03;2521948;28;20045;-75
2023/12/22 03:37:22;;;;;;;7.80;1.95;;;;;;;7.90;70.01;99330.06;2522685;28;20049;-74
2023/12/22 03:38:36;;;;;;;6.90;2.25;;;;;;;7.91;70.33;99328.31;2522740;28;20045;-75
2023/12/22 03:39:50;;;;;;;6.90;1.88;;;;;;;7.91;70.21;99331.78;2522109;28;20053;-75
2023/12/22 03:41:04;;;;;;;4.25;1.52;;;;;;;7.90;70.32;99337.88;2522523;28;20115;-75
2023/12/22 03:42:19;;;;;;;8.25;2.85;;;;;;;7.91;70.00;99336.97;2522610;28;20053;-74
2023/12/22 03:43:34;;;;;;;7.88;1.90;;;;;;;7.92;70.22;99343.00;2522591;28;20053;-74
2023/12/22 03:44:47;;;;;;;4.10;2.08;;;;;;;7.91;70.10;99346.50;2522759;28;20428;-75
2023/12/22 03:46:01;;;;;;;5.55;2.92;;;;;;;7.92;70.82;99354.25;2522730;28;20129;-74
2023/12/22 03:47:15;;;;;;;4.93;1.77;;;;;;;7.93;70.44;99361.19;2522632;28;20050;-75
2023/12/22 03:48:29;;;;;;;12.30;2.03;;;;;;;7.94;70.63;99375.03;2522216;28;20054;-75
2023/12/22 03:49:43;;;;;;;3.80;1.50;;;;;;;7.93;70.88;99365.53;2522718;28;20049;-75
2023/12/22 03:50:57;;;;;;;7.60;2.10;;;;;;;7.90;70.77;99362.97;2522510;28;20495;-74
2023/12/22 03:52:11;;;;;;;4.05;1.67;;;;;;;7.85;71.18;99363.91;2522137;28;20038;-74
2023/12/22 03:53:25;;;;;;;3.35;1.30;;;;;;;7.79;71.66;99370.94;2521665;28;20053;-74
2023/12/22 03:54:38;;;;;;;6.97;2.30;;;;;;;7.67;72.02;99373.75;2522803;28;20038;-74
2023/12/22 03:55:53;;;;;;;5.60;1.77;;;;;;;7.53;72.78;99366.22;2521977;28;20080;-72
2023/12/22 03:57:06;;;;;;;8.02;1.80;;;;;;;7.45;73.50;99362.88;2522447;28;20041;-74
2023/12/22 03:58:22;;;;;;;8.73;2.63;;;;;;;7.35;73.93;99372.56;2522494;28;20053;-75
2023/12/22 03:59:35;;;;;;;6.63;1.73;;;;;;;7.28;74.04;99370.94;2522086;28;20046;-75
2023/12/22 04:00:50;;;;;;;12.45;4.03;;;;;;;7.22;74.40;99374.50;2522595;28;20414;-75
2023/12/22 04:02:03;;;;;;;4.90;2.28;;;;;;;7.18;75.04;99383.22;2522549;28;20049;-75
2023/12/22 04:03:18;;;;;;;9.30;2.45;;;;;;;7.13;75.22;99382.44;2522185;28;20046;-75
2023/12/22 04:04:31;;;;;;;8.07;2.30;;;;;;;7.10;75.45;99383.34;2522068;28;20046;-75
2023/12/22 04:05:46;;;;;;;9.85;4.00;;;;;;;7.08;75.64;99381.63;2522489;28;20042;-75
2023/12/22 04:06:59;;;;;;;13.18;3.25;;;;;;;7.06;75.42;99376.47;2522415;28;20041;-75
2023/12/22 04:08:14;;;;;;;5.88;1.75;;;;;;;7.06;75.75;99378.19;2522110;28;20511;-75
2023/12/22 04:09:27;;;;;;;9.65;2.22;;;;;;;7.04;76.03;99377.34;2522464;28;20053;-75
2023/12/22 04:10:43;;;;;;;7.85;2.55;;;;;;;7.04;76.35;99383.41;2522601;28;20042;-73
2023/12/22 04:11:56;;;;;;;8.55;2.63;;;;;;;7.04;76.06;99382.56;2522018;28;20408;-74
2023/12/22 04:13:11;;;;;;;9.27;2.00;;;;;;;7.03;76.16;99384.28;2521880;28;20124;-74
2023/12/22 04:14:26;;;;;;;8.95;3.22;;;;;;;7.02;76.19;99374.78;2522257;28;20045;-75
2023/12/22 04:15:40;;;;;;;9.93;1.80;;;;;;;7.00;76.35;99371.38;2521954;28;20046;-75
2023/12/22 04:16:54;;;;;;;4.53;2.28;;;;;;;6.97;76.32;99367.09;2522391;28;20505;-75
2023/12/22 04:18:08;;;;;;;10.73;3.28;;;;;;;6.94;76.52;99367.13;2522231;28;20045;-76
2023/12/22 04:19:22;;;;;;;9.63;2.15;;;;;;;6.93;76.99;99359.38;2522337;28;20490;-75
2023/12/22 04:20:36;;;;;;;6.18;1.50;;;;;;;6.93;76.97;99365.41;2521769;28;20042;-75
2023/12/22 04:21:49;;;;;;;9.32;1.92;;;;;;;6.93;76.78;99370.59;2522345;28;20041;-76
2023/12/22 04:23:04;;;;;;;7.30;1.92;;;;;;;6.93;76.71;99365.41;2522085;28;20485;-75
2023/12/22 04:24:18;;;;;;;5.97;2.45;;;;;;;6.91;76.77;99367.16;2521819;28;20120;-75
2023/12/22 04:25:32;;;;;;;8.07;2.65;;;;;;;6.92;76.72;99373.22;2522007;28;20046;-75
2023/12/22 04:26:46;;;;;;;9.77;2.22;;;;;;;6.93;76.77;99367.16;2522225;28;20046;-75
2023/12/22 04:28:00;;;;;;;6.85;1.75;;;;;;;6.94;76.73;99371.44;2521897;28;20046;-74
2023/12/22 04:29:14;;;;;;;10.75;2.00;;;;;;;6.93;76.82;99380.97;2522226;28;20510;-75
2023/12/22 04:30:29;;;;;;;7.45;2.92;;;;;;;6.93;76.83;99380.97;2521710;28;20061;-73
2023/12/22 04:31:43;;;;;;;6.32;2.33;;;;;;;6.94;76.72;99381.81;2521772;28;20049;-75
2023/12/22 04:32:57;;;;;;;3.88;2.08;;;;;;;6.93;76.70;99386.16;2521935;28;20052;-76
2023/12/22 04:34:13;;;;;;;8.75;4.70;;;;;;;6.94;76.70;99380.09;2521967;28;20049;-76
2023/12/22 04:35:28;;;;;;;8.93;1.92;;;;;;;6.96;76.70;99375.72;2522374;28;20053;-75
2023/12/22 04:36:42;;;;;;;3.25;1.50;;;;;;;6.97;76.63;99371.44;2521792;28;20038;-75
2023/12/22 04:37:56;;;;;;;12.43;2.80;;;;;;;6.99;76.67;99370.50;2522227;28;20072;-76
2023/12/22 04:39:10;;;;;;;10.88;2.38;;;;;;;7.03;76.69;99365.28;2521968;28;20041;-76
2023/12/22 04:40:24;;;;;;;6.57;2.20;;;;;;;7.05;76.55;99379.94;2521622;28;20049;-77
2023/12/22 04:41:38;;;;;;;8.38;2.50;;;;;;;7.06;76.19;99380.78;2521754;28;20056;-78
2023/12/22 04:42:52;;;;;;;10.00;1.55;;;;;;;7.07;76.17;99385.94;2521989;28;20057;-76
2023/12/22 04:44:06;;;;;;;6.00;2.22;;;;;;;7.08;76.07;99394.63;2521897;28;20410;-77
2023/12/22 04:45:19;;;;;;;12.95;3.53;;;;;;;7.12;76.42;99396.25;2522271;28;20050;-77
2023/12/22 04:46:35;;;;;;;13.02;1.85;;;;;;;7.15;76.38;99391.91;2522284;28;20060;-76
2023/12/22 04:47:49;;;;;;;5.28;3.30;;;;;;;7.17;75.79;99397.06;2521691;28;20053;-76
2023/12/22 04:49:03;;;;;;;8.48;2.45;;;;;;;7.20;75.77;99389.22;2521603;28;20068;-76
2023/12/22 04:50:17;;;;;;;11.85;3.05;;;;;;;7.22;75.83;99393.50;2522196;28;20046;-76
2023/12/22 04:51:31;;;;;;;11.10;3.40;;;;;;;7.26;75.75;99388.28;2521923;28;20107;-77
2023/12/22 04:52:44;;;;;;;9.77;2.90;;;;;;;7.30;75.67;99401.16;2521473;28;20057;-76
2023/12/22 04:53:59;;;;;;;11.88;2.38;;;;;;;7.33;75.41;99400.28;2522235;28;20048;-76
2023/12/22 04:55:12;;;;;;;11.38;4.60;;;;;;;7.35;75.45;99394.16;2522311;28;20046;-76
2023/12/22 04:56:27;;;;;;;13.30;3.10;;;;;;;7.37;74.85;99402.78;2521560;28;20052;-76
2023/12/22 04:57:40;;;;;;;6.90;1.58;;;;;;;7.40;74.91;99399.28;2522291;28;20049;-76
2023/12/22 04:58:55;;;;;;;8.82;2.58;;;;;;;7.42;74.80;99400.13;2522230;28;20047;-77
2023/12/22 05:00:09;;;;;;;9.90;2.95;;;;;;;7.45;74.77;99399.22;2521574;28;20519;-76
2023/12/22 05:01:23;;;;;;;12.27;3.42;;;;;;;7.46;74.74;99396.63;2522015;28;20852;-77
2023/12/22 05:02:38;;;;;;;16.98;2.70;;;;;;;7.47;74.59;99381.91;2522458;28;20054;-76
2023/12/22 05:03:53;;;;;;;20.17;4.90;;;;;;;7.49;74.51;99387.94;2521489;28;20053;-76
2023/12/22 05:05:08;;;;;;;6.53;2.47;;;;;;;7.51;74.43;99379.22;2521951;28;20415;-76
2023/12/22 05:06:22;;;;;;;10.00;2.80;;;;;;;7.53;73.94;99374.00;2521555;28;20129;-76
2023/12/22 05:07:36;;;;;;;9.63;3.00;;;;;;;7.54;74.07;99375.72;2521725;28;20049;-75
2023/12/22 05:08:50;;;;;;;13.18;2.97;;;;;;;7.56;73.97;99389.53;2522180;28;20468;-76
2023/12/22 05:10:04;;;;;;;15.70;3.28;;;;;;;7.58;73.59;99385.16;2521817;28;20438;-77
2023/12/22 05:11:18;;;;;;;10.30;3.42;;;;;;;7.59;73.49;99381.66;2522105;28;20124;-80
2023/12/22 05:12:32;;;;;;;12.18;3.05;;;;;;;7.61;73.20;99382.50;2521533;28;20049;-76
2023/12/22 05:13:46;;;;;;;12.25;2.38;;;;;;;7.63;73.22;99388.53;2521977;28;20149;-76
2023/12/22 05:15:00;;;;;;;9.95;2.50;;;;;;;7.67;73.24;99389.34;2522190;28;20041;-76
2023/12/22 05:16:14;;;;;;;12.32;2.47;;;;;;;7.67;73.10;99398.00;2521717;28;20052;-77
2023/12/22 05:17:27;;;;;;;16.83;3.55;;;;;;;7.71;73.01;99394.44;2522123;28;20064;-76
2023/12/22 05:18:43;;;;;;;10.10;3.05;;;;;;;7.75;72.73;99398.72;2522006;28;20699;-77
2023/12/22 05:19:57;;;;;;;9.18;3.10;;;;;;;7.77;72.03;99412.56;2521636;28;20042;-77
2023/12/22 05:21:13;;;;;;;18.15;2.65;;;;;;;7.79;72.48;99413.34;2521895;28;20045;-76
2023/12/22 05:22:29;;;;;;;13.68;2.88;;;;;;;7.80;71.93;99407.28;2521710;28;20050;-77
2023/12/22 05:23:44;;;;;;;9.43;2.42;;;;;;;7.80;72.18;99409.91;2521393;28;20050;-76
2023/12/22 05:24:58;;;;;;;11.63;2.95;;;;;;;7.84;72.33;99423.66;2521571;28;20041;-76
2023/12/22 05:26:17;;;;;;;14.18;4.35;;;;;;;7.83;72.26;99437.56;2522109;28;20049;-76
2023/12/22 05:27:31;;;;;;;16.80;3.00;;;;;;;7.83;71.85;99451.41;2522005;28;20058;-76
2023/12/22 05:28:45;;;;;;;17.58;2.92;;;;;;;7.83;72.26;99455.75;2521627;28;20038;-76
2023/12/22 05:30:01;;;;;;;15.98;3.67;;;;;;;7.84;72.23;99454.84;2522207;28;20057;-77
2023/12/22 05:31:16;;;;;;;13.50;3.00;;;;;;;7.84;72.25;99466.09;2522021;28;20046;-77
2023/12/22 05:32:30;;;;;;;10.00;3.35;;;;;;;7.83;72.18;99456.59;2521419;28;20045;-76
2023/12/22 05:33:45;;;;;;;15.20;4.88;;;;;;;7.85;71.90;99446.19;2521726;28;20453;-77
2023/12/22 05:34:59;;;;;;;13.20;2.63;;;;;;;7.87;71.71;99444.41;2521867;28;20042;-76
2023/12/22 05:36:13;;;;;;;11.20;3.75;;;;;;;7.89;71.69;99447.81;2521764;28;20046;-77
2023/12/22 05:37:27;;;;;;;16.77;3.15;;;;;;;7.91;71.79;99466.00;2521737;28;20053;-77
2023/12/22 05:38:41;;;;;;;17.63;4.10;;;;;;;7.93;71.62;99436.50;2522132;28;20052;-76
2023/12/22 05:39:55;;;;;;;10.23;3.45;;;;;;;7.96;71.17;99462.44;2521500;28;20086;-76
2023/12/22 05:41:10;;;;;;;11.75;4.47;;;;;;;7.98;71.10;99446.84;2521595;28;20046;-78
2023/12/22 05:42:23;;;;;;;19.63;5.78;;;;;;;7.99;70.74;99448.53;2521818;28;20061;-77
2023/12/22 05:43:37;;;;;;;13.68;3.83;;;;;;;8.00;70.77;99453.72;2521251;28;20049;-77
2023/12/22 05:44:51;;;;;;;10.25;2.60;;;;;;;8.00;70.55;99458.03;2521324;28;20060;-76
2023/12/22 05:46:05;;;;;;;12.02;2.97;;;;;;;8.01;70.60;99464.97;2521995;28;20046;-77
2023/12/22 05:47:19;;;;;;;11.85;3.55;;;;;;;7.99;70.67;99475.38;2522037;28;20058;-76
2023/12/22 05:48:34;;;;;;;14.45;3.97;;;;;;;8.00;70.82;99465.81;2513462;28;20400;-76
2023/12/22 05:49:49;;;;;;;15.82;2.33;;;;;;;8.01;70.14;99478.81;2521764;28;20414;-76
2023/12/22 05:51:07;;;;;;;9.70;2.97;;;;;;;8.01;70.27;99467.56;2521959;28;20050;-76
2023/12/22 05:52:20;;;;;;;11.00;3.08;;;;;;;8.02;70.56;99469.25;2521914;28;20765;-76